Marble Canyon, AZ (86036)

5:22 PM MST on October 01, 2014 (GMT -0700)
Page Municipal | Change Station
CLOSE
Current Station
Airport
Location: Page,
Elevation: 4308 ft
Nearby Weather Stations

Elev 4308 ft 36.92 °N, 111.45 °W | Updated 29 minutes ago

Clear
Clear
72 °F
Feels Like 72 °F
N
15
Wind Variable Wind from WNW
Gusts 24 mph

Today
High -- | Low -- °F
--% Chance of Precip.
Yesterday
High -- | Low -- °F
Precip. -- in
6:21 AM 6:09 PM
First Quarter, 52% visible
Pressure 29.80 in
Visibility 10.0 miles
Clouds Clear
Dew Point 28 °F
Humidity 20%
Rainfall 0.00 in
Snow Depth 0 in , 0 in , 0 in
UV 1 out of 12
Pollen 4.70 out of 12
Air Quality Not available.
Flu Activity Not available.
METAR KPGA 012353Z AUTO 30013G21KT 10SM CLR 22/M02 A2994 RMK AO2 SLP091 T02221022 10244 20211 53006 $

More Conditions Fewer Conditions

Pressure 29.80 in
Visibility 10.0 miles
Clouds Clear
Dew Point 28 °F
Humidity 20%
Rainfall 0.00 in
Snow Depth 0 in , 0 in , 0 in
UV 1 out of 12
Pollen 4.70 out of 12
Air Quality Not available.
Flu Activity Not available.
METAR KPGA 012353Z AUTO 30013G21KT 10SM CLR 22/M02 A2994 RMK AO2 SLP091 T02221022 10244 20211 53006 $

More Conditions Fewer Conditions

10-Day Weather Forecast

Almanac

Astronomy

Oct. 01, 2014 Rise Set
Actual Time 6:21 AM MST 6:09 PM MST
Civil Twilight 5:56 AM MST 6:35 PM MST
Nautical Twilight 5:26 AM MST 7:05 PM MST
Astronomical Twilight 4:55 AM MST 7:35 PM MST
Moon 1:19 PM MST (10/1) 11:51 PM MST (10/1)
Length of Visible Light 12h 39m
Length of Day
11h 47m
Tomorrow will be 2m 20s shorter.
First Quarter, 52% of the Moon is Illuminated
Today
First Quarter
Oct 8
Full
Oct 15
Last Quarter
Oct 23
New
Oct 30
First Quarter

Today's Extremes

State Highs State Lows

Community

WunderPhotos

Upload Photos

1,758,097 photos uploaded!

WunderBlogs® & News

Nearby

Snow Depth

Station Depth Elevation
Maverick Fork 0 in 9200 ft
Beaver Head 0 in 7990 ft
Snowslide Canyon 0 in 9730 ft
Workman Creek 1 in 6900 ft

Earthquake Activity

City Distance Mag. Time & Date
No recent earthquake activity has been reported nearby.
Minimum magnitude displayed is 2.5.

Coastal Water Temperatures

Place Temperature
No Stations Reporting

Nearby Weather Stations